Tonto Basin, Arizona
Current Conditions -  °F | °C
As of 11:55 PM on Sunday 23 Nov 2014 (Local Time) from KPAN Reporting Station
Clear Clear  
Wind Chill: 36°   Ceiling: Unl
Heat Index: 36°   Visibility: 10mi
Dew Point: -8°   Wind: 0mph
Humidity: 16%   Direction: NA
Pressure: 30.21"   Gusts: NA
Location:  33.93°N, 111.31°W
Report Text: KPAN 240655Z AUTO 00000KT 10SM CLR 02/M22 A3021 RMK AO2
Loading
Personal Weather Stations






























Interactive Weather Map New forecast layout! Learn more

10-Day Weather Forecast

Advertisements
Track Severe Weather on mobile